Mesa, Washington
Current Conditions -  °F | °C
As of 11:53 PM on Wednesday 28 Jan 2015 (Local Time) from KPSC Reporting Station
Overcast Overcast  
Wind Chill: 32°   Ceiling: 1400
Heat Index: 38°   Visibility: 10mi
Dew Point: 35°   Wind: 8mph
Humidity: 89%   Direction: 310°NW
Pressure: 30.5"   Gusts: NA
Location:  46.58°N, 119.01°W
Report Text: KPSC 290753Z AUTO 31007KT 10SM OVC014 03/02 A3050 RMK AO2 SLP331 T00330017 400500011 $
Loading
Personal Weather Stations






























Interactive Weather Map New forecast layout! Learn more

10-Day Weather Forecast

Advertisements
Track Severe Weather on mobile